Time;durP1;ratioP1;P1;durP2;ratioP2;P2;SDS_P1;SDS_P2;PMS_P1;PMS_P2;Temp;Humidity;BMP_temperature;BMP_pressure;BME280_temperature;BME280_humidity;BME280_pressure;Samples;Min_cycle;Max_cycle;Signal;HPM_P1;HPM_P2
2023/02/03 00:01:08;;;;;;;3.33;1.70;;;;;;;;;;5051168;28;20391;-81
2023/02/03 00:03:34;;;;;;;4.03;1.70;;;;;;;;;;5051701;28;20436;-81
2023/02/03 00:06:01;;;;;;;4.30;1.85;;;;;;;;;;5051888;28;20887;-80
2023/02/03 00:08:27;;;;;;;5.90;1.63;;;;;;;;;;5051664;28;20400;-81
2023/02/03 00:10:53;;;;;;;4.85;1.90;;;;;;;;;;5051524;28;20494;-81
2023/02/03 00:13:19;;;;;;;3.28;1.73;;;;;;;;;;5033650;28;20796;-81
2023/02/03 00:15:45;;;;;;;5.82;2.03;;;;;;;;;;5051685;28;20385;-81
2023/02/03 00:18:12;;;;;;;3.72;1.58;;;;;;;;;;5043521;28;20473;-81
2023/02/03 00:20:38;;;;;;;3.65;2.03;;;;;;;;;;5051547;28;20384;-81
2023/02/03 00:23:05;;;;;;;3.88;1.83;;;;;;;;;;5051495;28;20385;-81
2023/02/03 00:25:31;;;;;;;4.50;1.92;;;;;;;;;;5051258;28;20385;-81
2023/02/03 00:27:57;;;;;;;4.85;1.95;;;;;;;;;;5051430;28;20392;-81
2023/02/03 00:30:23;;;;;;;4.30;1.93;;;;;;;;;;5050068;28;20771;-82
2023/02/03 00:32:58;;;;;;;4.88;2.00;;;;;;;;;;5042000;28;20861;-82
2023/02/03 00:35:24;;;;;;;4.80;2.05;;;;;;;;;;5050982;28;20865;-81
2023/02/03 00:37:53;;;;;;;4.10;1.90;;;;;;;;;;5051155;28;20460;-81
2023/02/03 00:40:20;;;;;;;5.25;1.70;;;;;;;;;;5051590;28;20385;-81
2023/02/03 00:42:46;;;;;;;3.25;1.90;;;;;;;;;;5052076;28;20731;-81
2023/02/03 00:45:12;;;;;;;3.65;1.63;;;;;;;;;;5051896;28;20389;-81
2023/02/03 00:47:38;;;;;;;5.30;1.80;;;;;;;;;;5052064;28;20392;-81
2023/02/03 00:50:05;;;;;;;5.15;2.20;;;;;;;;;;5052104;28;20373;-81
2023/02/03 00:52:31;;;;;;;5.60;2.25;;;;;;;;;;5051597;28;20382;-81
2023/02/03 00:54:57;;;;;;;3.90;1.95;;;;;;;;;;5050769;28;20389;-81
2023/02/03 00:57:23;;;;;;;3.40;1.70;;;;;;;;;;5051999;28;20881;-82
2023/02/03 00:59:49;;;;;;;4.78;2.20;;;;;;;;;;5051451;28;20389;-81
2023/02/03 01:02:15;;;;;;;5.40;2.10;;;;;;;;;;5033932;28;20384;-81
2023/02/03 01:04:41;;;;;;;4.88;2.05;;;;;;;;;;5052835;28;20385;-81
2023/02/03 01:07:07;;;;;;;3.83;1.90;;;;;;;;;;5051920;28;20389;-79
2023/02/03 01:09:34;;;;;;;6.05;2.00;;;;;;;;;;5051847;28;20380;-80
2023/02/03 01:12:00;;;;;;;3.60;1.80;;;;;;;;;;5051847;28;20437;-80
2023/02/03 01:14:26;;;;;;;5.53;1.95;;;;;;;;;;5055844;28;20393;-80
2023/02/03 01:16:52;;;;;;;4.28;1.90;;;;;;;;;;5055716;28;20924;-79
2023/02/03 01:19:18;;;;;;;4.57;1.80;;;;;;;;;;5053913;28;20409;-80
2023/02/03 01:21:44;;;;;;;2.33;1.50;;;;;;;;;;5054516;28;20381;-79
2023/02/03 01:24:10;;;;;;;4.32;1.60;;;;;;;;;;5037503;28;20392;-80
2023/02/03 01:26:36;;;;;;;3.10;1.70;;;;;;;;;;5055759;28;20389;-79
2023/02/03 01:29:02;;;;;;;3.83;1.75;;;;;;;;;;5055573;28;20386;-80
2023/02/03 01:31:30;;;;;;;6.95;2.00;;;;;;;;;;5037739;28;20409;-79
2023/02/03 01:33:57;;;;;;;4.80;1.80;;;;;;;;;;5037554;28;20424;-79
2023/02/03 01:36:25;;;;;;;3.30;1.60;;;;;;;;;;5055350;28;20442;-79
2023/02/03 01:38:51;;;;;;;3.65;1.35;;;;;;;;;;5055311;28;20409;-79
2023/02/03 01:41:22;;;;;;;2.97;1.58;;;;;;;;;;5055288;28;20389;-80
2023/02/03 01:43:52;;;;;;;4.70;1.52;;;;;;;;;;5055519;28;20899;-79
2023/02/03 01:46:24;;;;;;;3.10;1.50;;;;;;;;;;5055329;28;20507;-79
2023/02/03 01:48:51;;;;;;;5.60;1.70;;;;;;;;;;5055241;28;20505;-80
2023/02/03 01:51:17;;;;;;;3.95;1.30;;;;;;;;;;5055020;28;20533;-79
2023/02/03 01:53:43;;;;;;;2.95;1.40;;;;;;;;;;5055240;28;20417;-80
2023/02/03 01:56:10;;;;;;;4.47;1.77;;;;;;;;;;5055148;28;20989;-80
2023/02/03 01:58:38;;;;;;;2.88;1.58;;;;;;;;;;5055323;28;20447;-80
2023/02/03 02:01:04;;;;;;;4.63;1.63;;;;;;;;;;5055091;28;20436;-80
2023/02/03 02:03:38;;;;;;;4.00;1.50;;;;;;;;;;5037268;28;20444;-80
2023/02/03 02:06:06;;;;;;;4.07;1.70;;;;;;;;;;5055262;28;20438;-79
2023/02/03 02:08:32;;;;;;;4.72;1.90;;;;;;;;;;5054759;28;20388;-80
2023/02/03 02:10:59;;;;;;;3.63;1.70;;;;;;;;;;5054729;28;20445;-80
2023/02/03 02:13:25;;;;;;;4.00;1.67;;;;;;;;;;5047020;28;20468;-80
2023/02/03 02:15:59;;;;;;;6.00;1.95;;;;;;;;;;5043768;28;20382;-79
2023/02/03 02:18:35;;;;;;;3.88;1.90;;;;;;;;;;5054634;28;20385;-79
2023/02/03 02:21:14;;;;;;;4.05;1.85;;;;;;;;;;5054705;28;20424;-80
2023/02/03 02:23:51;;;;;;;4.13;2.03;;;;;;;;;;5053250;28;20450;-79
2023/02/03 02:26:36;;;;;;;4.55;1.77;;;;;;;;;;5052643;28;20440;-80
2023/02/03 02:29:19;;;;;;;5.63;2.13;;;;;;;;;;5055138;28;20428;-79
2023/02/03 02:31:57;;;;;;;4.40;1.60;;;;;;;;;;5056682;28;20456;-80
2023/02/03 02:34:39;;;;;;;5.75;2.00;;;;;;;;;;5037595;28;20427;-80
2023/02/03 02:37:05;;;;;;;3.67;1.70;;;;;;;;;;5038301;28;20433;-80
2023/02/03 02:39:40;;;;;;;3.65;1.65;;;;;;;;;;5054637;28;20929;-80
2023/02/03 02:42:10;;;;;;;5.28;1.80;;;;;;;;;;5053552;28;20530;-80
2023/02/03 02:44:43;;;;;;;4.68;1.65;;;;;;;;;;5053120;28;20544;-80
2023/02/03 02:47:13;;;;;;;6.25;2.22;;;;;;;;;;5053085;28;20776;-81
2023/02/03 02:49:44;;;;;;;7.60;2.10;;;;;;;;;;5052988;28;20517;-81
2023/02/03 02:52:11;;;;;;;4.87;1.97;;;;;;;;;;5053161;28;20417;-80
2023/02/03 02:54:40;;;;;;;4.57;1.75;;;;;;;;;;5053458;28;20467;-80
2023/02/03 02:57:07;;;;;;;4.60;1.87;;;;;;;;;;5043637;28;20444;-80
2023/02/03 02:59:33;;;;;;;3.80;1.40;;;;;;;;;;5036163;28;20406;-80
2023/02/03 03:01:59;;;;;;;4.88;1.48;;;;;;;;;;5038101;28;20868;-80
2023/02/03 03:04:30;;;;;;;5.47;1.75;;;;;;;;;;5033384;28;20486;-80
2023/02/03 03:06:59;;;;;;;3.22;1.45;;;;;;;;;;5034337;28;20431;-80
2023/02/03 03:09:28;;;;;;;3.20;1.52;;;;;;;;;;5041795;28;20409;-80
2023/02/03 03:11:57;;;;;;;4.47;1.40;;;;;;;;;;5039703;28;20846;-80
2023/02/03 03:14:26;;;;;;;4.90;1.58;;;;;;;;;;5033301;28;20401;-80
2023/02/03 03:16:58;;;;;;;5.43;1.67;;;;;;;;;;5034873;28;20446;-80
2023/02/03 03:19:27;;;;;;;4.85;2.10;;;;;;;;;;5036594;28;20455;-80
2023/02/03 03:21:56;;;;;;;4.70;1.60;;;;;;;;;;5031858;28;20398;-80
2023/02/03 03:24:43;;;;;;;5.35;2.00;;;;;;;;;;5036641;28;20431;-80
2023/02/03 03:27:14;;;;;;;4.57;1.63;;;;;;;;;;5036987;28;20438;-81
2023/02/03 03:29:47;;;;;;;5.00;1.45;;;;;;;;;;5034399;28;20378;-81
2023/02/03 03:32:13;;;;;;;4.90;1.55;;;;;;;;;;5039118;28;20458;-81
2023/02/03 03:34:39;;;;;;;5.45;1.45;;;;;;;;;;5033936;28;20449;-80
2023/02/03 03:37:17;;;;;;;5.63;1.40;;;;;;;;;;5034086;28;20406;-80
2023/02/03 03:39:46;;;;;;;3.83;1.38;;;;;;;;;;5037135;28;20449;-81
2023/02/03 03:42:22;;;;;;;3.58;1.48;;;;;;;;;;5033529;28;20905;-84
2023/02/03 03:44:52;;;;;;;2.63;1.23;;;;;;;;;;5037888;28;20449;-80
2023/02/03 03:47:26;;;;;;;5.30;1.63;;;;;;;;;;5053285;28;20437;-80
2023/02/03 03:49:53;;;;;;;4.22;1.27;;;;;;;;;;5053502;28;20524;-80
2023/02/03 03:52:21;;;;;;;3.30;1.40;;;;;;;;;;5052258;28;20416;-80
2023/02/03 03:54:48;;;;;;;4.90;1.58;;;;;;;;;;5052365;28;20498;-81
2023/02/03 03:57:21;;;;;;;4.60;1.42;;;;;;;;;;5051560;28;20389;-80
2023/02/03 03:59:48;;;;;;;4.80;1.42;;;;;;;;;;5051326;28;20427;-80
2023/02/03 04:02:15;;;;;;;5.28;1.40;;;;;;;;;;5051831;28;20381;-80
2023/02/03 04:04:43;;;;;;;5.17;1.50;;;;;;;;;;5051382;28;20475;-80
2023/02/03 04:07:09;;;;;;;5.88;1.80;;;;;;;;;;5051818;28;20389;-80
2023/02/03 04:09:35;;;;;;;5.40;2.00;;;;;;;;;;5051499;28;20447;-80
2023/02/03 04:12:02;;;;;;;3.67;1.55;;;;;;;;;;5033626;28;20409;-80
2023/02/03 04:14:31;;;;;;;3.53;1.30;;;;;;;;;;5052482;28;20805;-80
2023/02/03 04:16:58;;;;;;;3.50;1.33;;;;;;;;;;5034638;28;20897;-80
2023/02/03 04:19:24;;;;;;;3.78;1.50;;;;;;;;;;5052607;28;20874;-80
2023/02/03 04:21:50;;;;;;;5.20;1.65;;;;;;;;;;5051081;28;20519;-80
2023/02/03 04:24:16;;;;;;;3.92;1.45;;;;;;;;;;5050877;28;20409;-80
2023/02/03 04:26:42;;;;;;;3.60;1.40;;;;;;;;;;5052481;28;20897;-80
2023/02/03 04:29:08;;;;;;;3.78;1.20;;;;;;;;;;5035042;28;20385;-80
2023/02/03 04:31:34;;;;;;;3.33;1.05;;;;;;;;;;5052341;28;20412;-80
2023/02/03 04:34:00;;;;;;;3.53;1.20;;;;;;;;;;5052658;28;20380;-80
2023/02/03 04:36:26;;;;;;;4.70;1.33;;;;;;;;;;5031058;28;20413;-79
2023/02/03 04:38:52;;;;;;;3.33;1.00;;;;;;;;;;5039627;28;20375;-80
2023/02/03 04:41:18;;;;;;;4.38;1.27;;;;;;;;;;5040233;28;20431;-80
2023/02/03 04:43:44;;;;;;;4.60;1.25;;;;;;;;;;5033790;28;21293;-80
2023/02/03 04:46:10;;;;;;;5.07;1.43;;;;;;;;;;5051506;28;20386;-80
2023/02/03 04:48:36;;;;;;;3.63;1.40;;;;;;;;;;5054930;28;20396;-80
2023/02/03 04:51:03;;;;;;;3.83;1.50;;;;;;;;;;5055152;28;20405;-80
2023/02/03 04:53:30;;;;;;;4.15;1.25;;;;;;;;;;5056226;28;20381;-80
2023/02/03 04:55:56;;;;;;;5.70;1.60;;;;;;;;;;5056560;28;20384;-80
2023/02/03 04:58:22;;;;;;;3.90;1.48;;;;;;;;;;5056192;28;20457;-80
2023/02/03 05:00:48;;;;;;;2.33;1.17;;;;;;;;;;5055982;28;20386;-80
2023/02/03 05:03:14;;;;;;;3.40;1.23;;;;;;;;;;5055842;28;20396;-80
2023/02/03 05:05:40;;;;;;;4.88;1.17;;;;;;;;;;5056124;28;20469;-80
2023/02/03 05:08:06;;;;;;;3.92;1.42;;;;;;;;;;5055950;28;20471;-80
2023/02/03 05:10:32;;;;;;;3.45;1.30;;;;;;;;;;5055200;28;20773;-80
2023/02/03 05:12:58;;;;;;;3.70;1.60;;;;;;;;;;5055873;28;20377;-80
2023/02/03 05:15:23;;;;;;;2.73;1.20;;;;;;;;;;5037678;28;20474;-80
2023/02/03 05:17:53;;;;;;;4.30;1.33;;;;;;;;;;5037917;28;20431;-80
2023/02/03 05:20:19;;;;;;;2.63;1.30;;;;;;;;;;5055273;28;20480;-81
2023/02/03 05:22:45;;;;;;;5.05;1.30;;;;;;;;;;5055464;28;20388;-81
2023/02/03 05:25:11;;;;;;;3.45;1.40;;;;;;;;;;5055423;28;20377;-80
2023/02/03 05:27:38;;;;;;;3.47;1.40;;;;;;;;;;5055533;28;20381;-80
2023/02/03 05:30:05;;;;;;;3.88;1.42;;;;;;;;;;5055085;28;20739;-80
2023/02/03 05:32:31;;;;;;;5.80;1.38;;;;;;;;;;5055516;28;20370;-80
2023/02/03 05:34:57;;;;;;;3.80;1.40;;;;;;;;;;5034413;28;20422;-81
2023/02/03 05:37:23;;;;;;;3.20;1.30;;;;;;;;;;5035453;28;20433;-81
2023/02/03 05:39:49;;;;;;;3.58;1.30;;;;;;;;;;5019335;28;20379;-80
2023/02/03 05:42:15;;;;;;;3.63;1.48;;;;;;;;;;5033853;28;20383;-80
2023/02/03 05:44:41;;;;;;;3.40;1.60;;;;;;;;;;5035273;28;20965;-81
2023/02/03 05:47:07;;;;;;;4.60;1.25;;;;;;;;;;5035392;28;20379;-80
2023/02/03 05:49:33;;;;;;;2.67;1.30;;;;;;;;;;5034900;28;20391;-80
2023/02/03 05:51:59;;;;;;;3.03;1.10;;;;;;;;;;5034803;28;20914;-81
2023/02/03 05:54:25;;;;;;;2.60;1.20;;;;;;;;;;5034022;28;20394;-80
2023/02/03 05:56:51;;;;;;;3.63;1.50;;;;;;;;;;5035289;28;20497;-80
2023/02/03 05:59:17;;;;;;;2.17;1.20;;;;;;;;;;5033828;28;20845;-81
2023/02/03 06:01:43;;;;;;;4.63;1.50;;;;;;;;;;5033905;28;20466;-81
2023/02/03 06:04:09;;;;;;;3.30;1.35;;;;;;;;;;5031966;28;20387;-81
2023/02/03 06:06:35;;;;;;;3.37;1.47;;;;;;;;;;5035132;28;20383;-80
2023/02/03 06:09:02;;;;;;;2.63;1.25;;;;;;;;;;5034615;28;20888;-81
2023/02/03 06:11:29;;;;;;;3.33;1.42;;;;;;;;;;5034283;28;20832;-80
2023/02/03 06:13:57;;;;;;;4.63;1.45;;;;;;;;;;5034933;28;20384;-80
2023/02/03 06:16:23;;;;;;;3.55;1.30;;;;;;;;;;5034958;28;20379;-80
2023/02/03 06:18:50;;;;;;;2.85;1.10;;;;;;;;;;5030326;28;20432;-80
2023/02/03 06:21:16;;;;;;;2.65;1.30;;;;;;;;;;5033055;28;20406;-80
2023/02/03 06:23:42;;;;;;;1.73;1.05;;;;;;;;;;5032123;28;20433;-78
2023/02/03 06:26:08;;;;;;;2.95;1.30;;;;;;;;;;5033445;28;20391;-80
2023/02/03 06:28:34;;;;;;;3.20;1.30;;;;;;;;;;5033786;28;20398;-80
2023/02/03 06:31:00;;;;;;;3.30;1.27;;;;;;;;;;5035291;28;20761;-80
2023/02/03 06:33:26;;;;;;;2.83;1.00;;;;;;;;;;5035666;28;20371;-81
2023/02/03 06:35:54;;;;;;;2.53;1.20;;;;;;;;;;5049312;28;20436;-81
2023/02/03 06:38:20;;;;;;;4.22;1.27;;;;;;;;;;5054719;28;20426;-81
2023/02/03 06:40:46;;;;;;;3.38;1.42;;;;;;;;;;5054478;28;20397;-81
2023/02/03 06:43:12;;;;;;;3.35;1.30;;;;;;;;;;5052464;28;20396;-81
2023/02/03 06:45:38;;;;;;;3.22;1.25;;;;;;;;;;5045428;28;20451;-79
2023/02/03 06:48:04;;;;;;;3.10;1.30;;;;;;;;;;5053545;28;20385;-79
2023/02/03 06:50:31;;;;;;;5.22;1.10;;;;;;;;;;5034751;28;20422;-80
2023/02/03 06:52:57;;;;;;;3.78;1.40;;;;;;;;;;5035595;28;20947;-81
2023/02/03 06:55:23;;;;;;;3.53;1.50;;;;;;;;;;5053953;28;20385;-81
2023/02/03 06:57:49;;;;;;;4.25;1.58;;;;;;;;;;5051007;28;20393;-80
2023/02/03 07:00:16;;;;;;;6.00;1.30;;;;;;;;;;5050129;28;20385;-81
2023/02/03 07:02:43;;;;;;;3.00;1.37;;;;;;;;;;5054012;28;20381;-81
2023/02/03 07:05:09;;;;;;;2.75;1.50;;;;;;;;;;5046840;28;20389;-82
2023/02/03 07:07:35;;;;;;;2.40;1.30;;;;;;;;;;5048482;28;20396;-80
2023/02/03 07:10:01;;;;;;;3.17;1.30;;;;;;;;;;5053153;28;20850;-81
2023/02/03 07:12:28;;;;;;;2.88;1.20;;;;;;;;;;5052654;28;20484;-83
2023/02/03 07:14:54;;;;;;;2.80;1.23;;;;;;;;;;5051540;28;20480;-81
2023/02/03 07:17:20;;;;;;;2.30;1.40;;;;;;;;;;5051110;28;20576;-79
2023/02/03 07:19:46;;;;;;;4.40;2.00;;;;;;;;;;5053392;28;20383;-81
2023/02/03 07:22:12;;;;;;;4.25;2.58;;;;;;;;;;5053497;28;20377;-81
2023/02/03 07:24:37;;;;;;;3.97;2.30;;;;;;;;;;5053334;28;20411;-82
2023/02/03 07:27:04;;;;;;;4.63;1.70;;;;;;;;;;5053501;28;20746;-81
2023/02/03 07:29:30;;;;;;;3.53;2.00;;;;;;;;;;5053407;28;20373;-81
2023/02/03 07:31:56;;;;;;;4.68;1.58;;;;;;;;;;5053596;28;20986;-81
2023/02/03 07:34:22;;;;;;;3.63;1.58;;;;;;;;;;5053146;28;20473;-81
2023/02/03 07:36:48;;;;;;;2.92;2.08;;;;;;;;;;5053573;28;20452;-81
2023/02/03 07:39:14;;;;;;;4.15;1.70;;;;;;;;;;5033905;28;20963;-81
2023/02/03 07:41:40;;;;;;;3.33;1.40;;;;;;;;;;5045653;28;20389;-83
2023/02/03 07:44:08;;;;;;;4.65;1.50;;;;;;;;;;5053073;28;20381;-83
2023/02/03 07:46:35;;;;;;;3.10;1.80;;;;;;;;;;5053162;28;20420;-81
2023/02/03 07:49:03;;;;;;;6.50;2.20;;;;;;;;;;5053193;28;20389;-81
2023/02/03 07:51:29;;;;;;;4.45;1.77;;;;;;;;;;5053005;28;20415;-81
2023/02/03 07:53:55;;;;;;;3.97;1.83;;;;;;;;;;5053054;28;20456;-81
2023/02/03 07:56:21;;;;;;;3.97;1.38;;;;;;;;;;5052932;28;20466;-82
2023/02/03 07:58:47;;;;;;;3.10;1.40;;;;;;;;;;5052305;28;20405;-81
2023/02/03 08:01:15;;;;;;;4.03;1.40;;;;;;;;;;5052549;28;20397;-83
2023/02/03 08:03:42;;;;;;;4.07;1.20;;;;;;;;;;5049177;28;20420;-83
2023/02/03 08:06:08;;;;;;;2.28;1.00;;;;;;;;;;5030383;28;20905;-83
2023/02/03 08:08:34;;;;;;;2.47;1.47;;;;;;;;;;5052923;28;20385;-83
2023/02/03 08:11:00;;;;;;;3.15;1.40;;;;;;;;;;5052887;28;20416;-82
2023/02/03 08:13:26;;;;;;;2.67;1.17;;;;;;;;;;5052684;28;20461;-81
2023/02/03 08:15:52;;;;;;;3.20;1.48;;;;;;;;;;5053027;28;20389;-84
2023/02/03 08:18:19;;;;;;;3.00;1.30;;;;;;;;;;5053959;28;20888;-82
2023/02/03 08:20:46;;;;;;;2.72;1.20;;;;;;;;;;5051470;28;20396;-81
2023/02/03 08:23:13;;;;;;;3.55;1.48;;;;;;;;;;5051906;28;20397;-82
2023/02/03 08:25:39;;;;;;;4.13;1.50;;;;;;;;;;5052574;28;20454;-83
2023/02/03 08:28:05;;;;;;;3.33;1.35;;;;;;;;;;5050489;28;20454;-82
2023/02/03 08:30:31;;;;;;;4.03;1.40;;;;;;;;;;5046333;28;20407;-83
2023/02/03 08:32:57;;;;;;;2.67;1.60;;;;;;;;;;5042455;28;20381;-82
2023/02/03 08:35:23;;;;;;;2.13;1.40;;;;;;;;;;5052506;28;20401;-82
2023/02/03 08:37:50;;;;;;;3.30;1.60;;;;;;;;;;5050632;28;20474;-82
2023/02/03 08:40:16;;;;;;;3.58;1.42;;;;;;;;;;5042076;28;20738;-81
2023/02/03 08:42:42;;;;;;;2.80;1.50;;;;;;;;;;5052387;28;20380;-82
2023/02/03 08:45:08;;;;;;;2.42;1.40;;;;;;;;;;5039349;28;20462;-83
2023/02/03 08:47:35;;;;;;;3.60;1.30;;;;;;;;;;5039082;28;20407;-82
2023/02/03 08:50:02;;;;;;;6.47;1.42;;;;;;;;;;5052239;28;20468;-83
2023/02/03 08:52:27;;;;;;;2.60;1.30;;;;;;;;;;5052009;28;20440;-82
2023/02/03 08:54:53;;;;;;;3.08;1.40;;;;;;;;;;5031933;28;20414;-82
2023/02/03 08:57:19;;;;;;;3.17;1.70;;;;;;;;;;5050005;28;21001;-82
2023/02/03 08:59:45;;;;;;;4.15;1.60;;;;;;;;;;5051631;28;20389;-81
2023/02/03 09:02:16;;;;;;;3.30;1.45;;;;;;;;;;5052429;28;20798;-82
2023/02/03 09:04:43;;;;;;;2.13;1.40;;;;;;;;;;5052803;28;20440;-81
2023/02/03 09:07:09;;;;;;;3.40;1.88;;;;;;;;;;5052433;28;20723;-81
2023/02/03 09:09:35;;;;;;;3.67;1.48;;;;;;;;;;5051897;28;20376;-81
2023/02/03 09:12:01;;;;;;;2.03;1.20;;;;;;;;;;5052257;28;20409;-82
2023/02/03 09:14:31;;;;;;;3.33;1.50;;;;;;;;;;5052515;28;20369;-82
2023/02/03 09:16:57;;;;;;;3.15;1.50;;;;;;;;;;5052858;28;20425;-82
2023/02/03 09:19:23;;;;;;;2.65;1.38;;;;;;;;;;5052217;28;20462;-82
2023/02/03 09:21:49;;;;;;;2.40;1.40;;;;;;;;;;5034698;28;20956;-81
2023/02/03 09:24:16;;;;;;;3.83;1.50;;;;;;;;;;5052925;28;20416;-82
2023/02/03 09:26:42;;;;;;;3.50;1.50;;;;;;;;;;5052621;28;20385;-82
2023/02/03 09:29:08;;;;;;;4.43;1.55;;;;;;;;;;5034614;28;20392;-82
2023/02/03 09:31:34;;;;;;;4.68;1.60;;;;;;;;;;5052500;28;20956;-82
2023/02/03 09:34:00;;;;;;;3.33;1.50;;;;;;;;;;5054588;28;20377;-82
2023/02/03 09:36:26;;;;;;;3.22;1.40;;;;;;;;;;5054533;28;20408;-83
2023/02/03 09:38:52;;;;;;;3.97;1.40;;;;;;;;;;5042309;28;20378;-83
2023/02/03 09:41:37;;;;;;;2.38;1.48;;;;;;;;;;5056264;28;20390;-83
2023/02/03 09:44:11;;;;;;;3.35;1.25;;;;;;;;;;5034463;28;20435;-82
2023/02/03 09:46:43;;;;;;;3.40;1.48;;;;;;;;;;5043090;28;20437;-82
2023/02/03 09:49:12;;;;;;;2.53;1.40;;;;;;;;;;5054903;28;20411;-82
2023/02/03 09:51:58;;;;;;;4.15;1.70;;;;;;;;;;5049101;28;20448;-83
2023/02/03 09:54:37;;;;;;;4.82;1.80;;;;;;;;;;5030049;28;20428;-82
2023/02/03 09:57:06;;;;;;;3.67;1.80;;;;;;;;;;5060334;28;20448;-81
2023/02/03 09:59:32;;;;;;;3.15;1.60;;;;;;;;;;5037196;28;20442;-82
2023/02/03 10:02:25;;;;;;;4.45;1.63;;;;;;;;;;5054176;28;20457;-83
2023/02/03 10:04:51;;;;;;;3.45;1.67;;;;;;;;;;5053751;28;20397;-83
2023/02/03 10:07:25;;;;;;;3.70;1.60;;;;;;;;;;5048980;28;20752;-82
2023/02/03 10:10:01;;;;;;;2.45;1.40;;;;;;;;;;5023948;28;20468;-82
2023/02/03 10:12:30;;;;;;;3.78;1.50;;;;;;;;;;5056361;28;20510;-82
2023/02/03 10:14:56;;;;;;;3.30;1.40;;;;;;;;;;5056198;28;20460;-84
2023/02/03 10:17:34;;;;;;;3.78;1.60;;;;;;;;;;5048892;28;20450;-84
2023/02/03 10:20:13;;;;;;;4.00;1.63;;;;;;;;;;5055801;28;20438;-83
2023/02/03 10:22:45;;;;;;;5.32;1.75;;;;;;;;;;5038494;28;20447;-83
2023/02/03 10:25:14;;;;;;;4.07;1.67;;;;;;;;;;5042033;28;20436;-82
2023/02/03 10:27:41;;;;;;;2.97;1.50;;;;;;;;;;5041603;28;20418;-82
2023/02/03 10:30:27;;;;;;;4.35;1.85;;;;;;;;;;5036062;28;20402;-82
2023/02/03 10:32:55;;;;;;;4.13;1.83;;;;;;;;;;5036841;28;20498;-82
2023/02/03 10:35:28;;;;;;;3.40;1.70;;;;;;;;;;5035218;28;20418;-82
2023/02/03 10:37:57;;;;;;;3.70;1.60;;;;;;;;;;5041168;28;20455;-82
2023/02/03 10:40:24;;;;;;;3.77;1.57;;;;;;;;;;5045788;28;20793;-82
2023/02/03 10:45:38;;;;;;;3.53;1.83;;;;;;;;;;5054811;28;20384;-82
2023/02/03 10:48:08;;;;;;;3.25;1.50;;;;;;;;;;5055183;28;20381;-83
2023/02/03 10:50:35;;;;;;;3.67;1.67;;;;;;;;;;5037096;28;20925;-83
2023/02/03 10:53:21;;;;;;;2.70;1.27;;;;;;;;;;5055208;28;20974;-82
2023/02/03 10:55:49;;;;;;;2.45;1.50;;;;;;;;;;5053835;28;20389;-83
2023/02/03 10:58:26;;;;;;;3.80;1.63;;;;;;;;;;5049501;28;20389;-83
2023/02/03 11:01:04;;;;;;;4.22;1.60;;;;;;;;;;5045733;28;20393;-82
2023/02/03 11:03:31;;;;;;;3.15;1.70;;;;;;;;;;5054185;28;20381;-82
2023/02/03 11:06:09;;;;;;;3.08;1.42;;;;;;;;;;5054036;28;20378;-82
2023/02/03 11:08:37;;;;;;;3.38;1.55;;;;;;;;;;5053973;28;20442;-84
2023/02/03 11:11:07;;;;;;;3.17;1.40;;;;;;;;;;5035830;28;20932;-83
2023/02/03 11:13:33;;;;;;;2.17;1.17;;;;;;;;;;5035882;28;20453;-82
2023/02/03 11:15:59;;;;;;;3.22;1.42;;;;;;;;;;5053649;28;20712;-82
2023/02/03 11:18:26;;;;;;;3.35;1.50;;;;;;;;;;5053750;28;20443;-82
2023/02/03 11:20:53;;;;;;;4.47;1.30;;;;;;;;;;5053797;28;20471;-82
2023/02/03 11:23:19;;;;;;;3.22;1.30;;;;;;;;;;5053361;28;20393;-83
2023/02/03 11:25:46;;;;;;;1.20;1.00;;;;;;;;;;5053029;28;20389;-83
2023/02/03 11:28:12;;;;;;;2.88;1.40;;;;;;;;;;5049746;28;20424;-83
2023/02/03 11:30:39;;;;;;;2.03;1.20;;;;;;;;;;5039145;28;20488;-84
2023/02/03 11:33:15;;;;;;;2.65;1.40;;;;;;;;;;5034020;28;20468;-83
2023/02/03 11:35:53;;;;;;;2.97;1.10;;;;;;;;;;5027626;28;20448;-83
2023/02/03 11:38:30;;;;;;;2.13;1.10;;;;;;;;;;5043151;28;20446;-83
2023/02/03 11:41:00;;;;;;;3.50;1.15;;;;;;;;;;5049042;28;20860;-83
2023/02/03 11:43:27;;;;;;;2.47;1.05;;;;;;;;;;5040512;28;20418;-85
2023/02/03 11:45:54;;;;;;;3.40;1.23;;;;;;;;;;5052210;28;20501;-84
2023/02/03 11:48:30;;;;;;;1.80;0.95;;;;;;;;;;5051882;28;20454;-84
2023/02/03 11:51:02;;;;;;;2.85;1.00;;;;;;;;;;5051547;28;20533;-84
2023/02/03 11:53:43;;;;;;;2.08;0.98;;;;;;;;;;5049602;28;20391;-84
2023/02/03 11:56:22;;;;;;;1.73;1.00;;;;;;;;;;5035932;28;21197;-84
2023/02/03 11:58:57;;;;;;;1.70;0.90;;;;;;;;;;5031742;28;20403;-84
2023/02/03 12:01:38;;;;;;;2.65;1.13;;;;;;;;;;5048964;28;20421;-83
2023/02/03 12:04:13;;;;;;;2.50;1.30;;;;;;;;;;5053790;28;20487;-84
2023/02/03 12:06:45;;;;;;;3.05;1.20;;;;;;;;;;5052632;28;20457;-83
2023/02/03 12:09:30;;;;;;;1.67;0.90;;;;;;;;;;5052255;28;20444;-84
2023/02/03 12:12:32;;;;;;;2.10;1.08;;;;;;;;;;5053958;28;20486;-84
2023/02/03 12:15:05;;;;;;;1.88;1.00;;;;;;;;;;4970725;28;20785;-82
2023/02/03 12:17:40;;;;;;;4.45;1.20;;;;;;;;;;5028898;28;20806;-82
2023/02/03 12:20:12;;;;;;;2.70;1.38;;;;;;;;;;5053026;28;20404;-83
2023/02/03 12:22:43;;;;;;;2.67;1.20;;;;;;;;;;5037348;28;20431;-83
2023/02/03 12:25:28;;;;;;;1.23;0.98;;;;;;;;;;5041256;28;20424;-84
2023/02/03 12:27:57;;;;;;;2.30;1.30;;;;;;;;;;5040719;28;20452;-82
2023/02/03 12:30:34;;;;;;;3.03;1.30;;;;;;;;;;5019175;28;20430;-83
2023/02/03 12:33:04;;;;;;;3.35;1.05;;;;;;;;;;5036704;28;20856;-83
2023/02/03 12:35:35;;;;;;;3.72;1.30;;;;;;;;;;5040065;28;20451;-83
2023/02/03 12:38:13;;;;;;;1.30;1.00;;;;;;;;;;5047557;28;20840;-83
2023/02/03 12:40:42;;;;;;;1.67;0.93;;;;;;;;;;5018724;28;20370;-84
2023/02/03 12:43:08;;;;;;;1.50;1.00;;;;;;;;;;5039269;28;20391;-83
2023/02/03 12:45:36;;;;;;;1.25;0.82;;;;;;;;;;5035769;28;20386;-84
2023/02/03 12:48:12;;;;;;;1.90;0.90;;;;;;;;;;5054103;28;20375;-83
2023/02/03 12:50:40;;;;;;;1.52;0.93;;;;;;;;;;5057987;28;20519;-83
2023/02/03 12:53:16;;;;;;;2.07;0.73;;;;;;;;;;5052125;28;20442;-83
2023/02/03 12:55:46;;;;;;;2.17;0.90;;;;;;;;;;5057861;28;20824;-83
2023/02/03 12:58:15;;;;;;;2.27;0.80;;;;;;;;;;5041055;28;20927;-84
2023/02/03 13:00:41;;;;;;;0.90;0.68;;;;;;;;;;5039241;28;20829;-84
2023/02/03 13:03:19;;;;;;;1.98;0.85;;;;;;;;;;5038636;28;20383;-83
2023/02/03 13:06:00;;;;;;;1.58;1.10;;;;;;;;;;5033816;28;20440;-84
2023/02/03 13:08:29;;;;;;;3.80;2.20;;;;;;;;;;5036805;28;20465;-83
2023/02/03 13:11:23;;;;;;;3.45;2.00;;;;;;;;;;5037674;28;20541;-83
2023/02/03 13:13:52;;;;;;;3.55;1.38;;;;;;;;;;5042303;28;20515;-84
2023/02/03 13:16:20;;;;;;;1.30;0.70;;;;;;;;;;5039263;28;20511;-83
2023/02/03 13:18:49;;;;;;;1.58;0.60;;;;;;;;;;5039785;28;20507;-84
2023/02/03 13:21:15;;;;;;;1.60;0.60;;;;;;;;;;5038384;28;20379;-82
2023/02/03 13:23:43;;;;;;;1.20;0.47;;;;;;;;;;5044050;28;20443;-83
2023/02/03 13:26:19;;;;;;;0.80;0.43;;;;;;;;;;5038839;28;20422;-83
2023/02/03 13:28:45;;;;;;;1.00;0.50;;;;;;;;;;5044119;28;20374;-83
2023/02/03 13:31:41;;;;;;;1.10;0.50;;;;;;;;;;5047913;28;20965;-83
2023/02/03 13:34:30;;;;;;;0.93;0.40;;;;;;;;;;5037007;28;20379;-81
2023/02/03 13:37:18;;;;;;;0.90;0.50;;;;;;;;;;5050642;28;20402;-83
2023/02/03 13:39:53;;;;;;;1.77;0.50;;;;;;;;;;5070736;28;20443;-83
2023/02/03 13:42:24;;;;;;;2.00;0.68;;;;;;;;;;5074822;28;20447;-83
2023/02/03 13:44:52;;;;;;;1.05;0.52;;;;;;;;;;5047085;28;20446;-83
2023/02/03 13:47:22;;;;;;;1.27;0.60;;;;;;;;;;5045062;28;20784;-83
2023/02/03 13:50:08;;;;;;;0.63;0.40;;;;;;;;;;5057411;28;20778;-83
2023/02/03 13:52:36;;;;;;;1.00;0.50;;;;;;;;;;5064384;28;20444;-83
2023/02/03 13:55:03;;;;;;;0.55;0.40;;;;;;;;;;5063479;28;20878;-81
2023/02/03 13:57:33;;;;;;;1.40;1.15;;;;;;;;;;5063107;28;20380;-82
2023/02/03 14:00:00;;;;;;;1.27;0.95;;;;;;;;;;5047642;28;20405;-82
2023/02/03 14:02:28;;;;;;;0.60;0.40;;;;;;;;;;5058534;28;20387;-82
2023/02/03 14:04:55;;;;;;;1.00;0.57;;;;;;;;;;5058711;28;20429;-83
2023/02/03 14:07:32;;;;;;;0.90;0.50;;;;;;;;;;5055757;28;20388;-84
2023/02/03 14:10:20;;;;;;;1.98;0.65;;;;;;;;;;5048010;28;20441;-81
2023/02/03 14:12:50;;;;;;;1.73;0.50;;;;;;;;;;5050253;28;20410;-82
2023/02/03 14:15:21;;;;;;;1.30;0.50;;;;;;;;;;5059107;28;20425;-83
2023/02/03 14:17:47;;;;;;;0.55;0.40;;;;;;;;;;5063810;28;20454;-82
2023/02/03 14:20:28;;;;;;;1.20;0.50;;;;;;;;;;5054534;28;20747;-82
2023/02/03 14:22:54;;;;;;;1.25;0.40;;;;;;;;;;5060808;28;20434;-83
2023/02/03 14:25:20;;;;;;;1.40;0.60;;;;;;;;;;5054832;28;20439;-82
2023/02/03 14:27:47;;;;;;;0.40;0.40;;;;;;;;;;5032665;28;20411;-82
2023/02/03 14:30:18;;;;;;;0.70;0.40;;;;;;;;;;5040926;28;20429;-83
2023/02/03 14:32:51;;;;;;;2.10;0.50;;;;;;;;;;5058230;28;20407;-83
2023/02/03 14:35:20;;;;;;;0.90;0.60;;;;;;;;;;5049457;28;20471;-82
2023/02/03 14:37:56;;;;;;;2.00;0.60;;;;;;;;;;5066285;28;20386;-83
2023/02/03 14:40:37;;;;;;;0.60;0.50;;;;;;;;;;5042812;28;20864;-83
2023/02/03 14:43:11;;;;;;;0.90;0.67;;;;;;;;;;5054528;28;20377;-83
2023/02/03 14:45:50;;;;;;;1.10;0.60;;;;;;;;;;5057956;28;20365;-84
2023/02/03 14:48:33;;;;;;;1.05;0.85;;;;;;;;;;5053283;28;20397;-84
2023/02/03 14:51:03;;;;;;;1.13;0.90;;;;;;;;;;5054475;28;20459;-85
2023/02/03 14:53:53;;;;;;;1.00;0.43;;;;;;;;;;5054068;28;20374;-82
2023/02/03 14:57:14;;;;;;;1.80;0.40;;;;;;;;;;5054468;28;20386;-83
2023/02/03 14:59:18;;;;;;;1.77;0.50;;;;;;;;;;5055321;28;20447;-83